Time;durP1;ratioP1;P1;durP2;ratioP2;P2;SDS_P1;SDS_P2;PMS_P1;PMS_P2;Temp;Humidity;BMP_temperature;BMP_pressure;BME280_temperature;BME280_humidity;BME280_pressure;Samples;Min_cycle;Max_cycle;Signal;HPM_P1;HPM_P2
2022/09/19 00:01:46;;;;;;;5.90;1.60;;;7.80;99.90;;;;;;5062912;28;20718;-69
2022/09/19 00:04:24;;;;;;;7.57;1.40;;;7.80;99.90;;;;;;5057445;28;20227;-66
2022/09/19 00:06:53;;;;;;;6.65;1.85;;;7.90;99.90;;;;;;5063229;28;20131;-66
2022/09/19 00:09:20;;;;;;;7.80;1.75;;;7.90;99.90;;;;;;5056705;28;20044;-67
2022/09/19 00:11:48;;;;;;;8.18;2.08;;;7.90;99.90;;;;;;5059255;28;20037;-70
2022/09/19 00:14:16;;;;;;;5.85;1.75;;;7.90;99.90;;;;;;5060031;28;20040;-67
2022/09/19 00:16:44;;;;;;;6.80;1.67;;;7.90;99.90;;;;;;5057593;28;20040;-67
2022/09/19 00:19:12;;;;;;;3.45;1.50;;;7.80;99.90;;;;;;5046253;28;20121;-68
2022/09/19 00:21:40;;;;;;;9.52;2.00;;;7.80;99.90;;;;;;5041054;28;20033;-68
2022/09/19 00:26:55;;;;;;;5.35;2.28;;;7.90;99.90;;;;;;5042737;28;20049;-67
2022/09/19 00:29:21;;;;;;;6.57;2.22;;;7.90;99.90;;;;;;5044607;28;20707;-68
2022/09/19 00:31:46;;;;;;;12.57;2.92;;;7.80;99.90;;;;;;5057809;28;20043;-67
2022/09/19 00:34:13;;;;;;;;;;;7.80;99.90;;;;;;5066693;28;20040;-72
2022/09/19 00:36:40;;;;;;;10.23;2.72;;;7.90;99.90;;;;;;5064992;28;19972;-67
2022/09/19 00:39:07;;;;;;;7.35;2.47;;;7.90;99.90;;;;;;5065878;28;20089;-68
2022/09/19 00:41:33;;;;;;;6.50;2.28;;;7.80;99.90;;;;;;5065410;28;20043;-68
2022/09/19 00:44:03;;;;;;;13.38;2.40;;;7.90;99.90;;;;;;5066075;28;20139;-68
2022/09/19 00:46:31;;;;;;;13.85;2.65;;;8.00;99.90;;;;;;5064872;28;20075;-67
2022/09/19 00:49:06;;;;;;;7.47;2.33;;;8.00;99.90;;;;;;5065861;28;20048;-68
2022/09/19 00:51:37;;;;;;;8.02;3.25;;;7.90;99.90;;;;;;5063871;28;20500;-68
2022/09/19 00:54:11;;;;;;;10.85;3.63;;;7.90;99.90;;;;;;5066963;28;20041;-67
2022/09/19 00:56:42;;;;;;;9.00;3.30;;;7.90;99.90;;;;;;5064361;28;20053;-69
2022/09/19 00:59:09;;;;;;;11.75;3.13;;;7.90;99.90;;;;;;5064879;28;20082;-68
2022/09/19 01:01:35;;;;;;;10.98;3.22;;;7.90;99.90;;;;;;5052641;28;20129;-67
2022/09/19 01:04:01;;;;;;;16.25;3.20;;;7.90;99.90;;;;;;5046469;28;20043;-66
2022/09/19 01:06:46;;;;;;;7.57;2.67;;;8.00;99.90;;;;;;5043247;28;20460;-69
2022/09/19 01:09:36;;;;;;;8.35;2.63;;;8.00;99.90;;;;;;5044335;28;20037;-67
2022/09/19 01:12:25;;;;;;;8.70;2.30;;;8.00;99.90;;;;;;5043472;28;20033;-69
2022/09/19 01:15:20;;;;;;;12.70;3.05;;;8.00;99.90;;;;;;5038801;28;20044;-70
2022/09/19 01:17:59;;;;;;;14.02;2.95;;;8.10;99.90;;;;;;5014942;28;20049;-66
2022/09/19 01:20:52;;;;;;;8.50;2.38;;;8.10;99.90;;;;;;5044456;28;20049;-68
2022/09/19 01:23:32;;;;;;;8.55;3.40;;;8.10;99.90;;;;;;5043945;28;20105;-67
2022/09/19 01:26:16;;;;;;;13.73;2.80;;;8.00;99.90;;;;;;5043877;28;20052;-69
2022/09/19 01:29:18;;;;;;;8.98;2.50;;;8.00;99.90;;;;;;5042763;28;20037;-67
2022/09/19 01:31:48;;;;;;;17.10;3.00;;;8.10;99.90;;;;;;5042399;28;20044;-67
2022/09/19 01:34:25;;;;;;;8.38;1.85;;;8.10;99.90;;;;;;5042153;28;20108;-68
2022/09/19 01:37:31;;;;;;;12.73;2.50;;;8.10;99.90;;;;;;5054249;28;20489;-70
2022/09/19 01:40:00;;;;;;;13.00;2.80;;;8.10;99.90;;;;;;5042659;28;20041;-68
2022/09/19 01:42:26;;;;;;;13.55;2.60;;;8.20;99.90;;;;;;5055250;28;20044;-67
2022/09/19 01:44:53;;;;;;;;;;;8.10;99.90;;;;;;5046082;28;20032;-69
2022/09/19 01:47:36;;;;;;;;;;;8.10;99.90;;;;;;5057890;28;19924;-68
2022/09/19 01:50:17;;;;;;;10.95;2.95;;;8.10;99.90;;;;;;5047110;28;20001;-67
2022/09/19 01:53:13;;;;;;;12.18;2.90;;;8.10;99.90;;;;;;5050948;28;20033;-68
2022/09/19 01:55:46;;;;;;;9.00;2.67;;;8.10;99.90;;;;;;5046936;28;20048;-67
2022/09/19 01:58:31;;;;;;;6.10;2.13;;;8.10;99.90;;;;;;5046343;28;20612;-69
2022/09/19 02:01:18;;;;;;;14.15;2.90;;;8.20;99.90;;;;;;5047835;28;20129;-68
2022/09/19 02:04:01;;;;;;;11.57;3.30;;;8.20;99.90;;;;;;5065228;28;20503;-69
2022/09/19 02:06:47;;;;;;;11.13;2.97;;;8.10;99.90;;;;;;5063169;28;20093;-68
2022/09/19 02:09:48;;;;;;;10.90;2.47;;;8.10;99.90;;;;;;5054972;28;20067;-69
2022/09/19 02:12:16;;;;;;;6.93;2.45;;;8.10;99.90;;;;;;5058903;28;20587;-68
2022/09/19 02:14:47;;;;;;;8.75;3.10;;;8.10;99.90;;;;;;5053354;28;20112;-71
2022/09/19 02:17:21;;;;;;;25.95;4.07;;;8.00;99.90;;;;;;5066925;28;20075;-66
2022/09/19 02:19:56;;;;;;;14.70;3.65;;;8.00;99.90;;;;;;5055013;28;20076;-67
2022/09/19 02:22:31;;;;;;;16.33;3.10;;;8.10;99.90;;;;;;5060273;28;20044;-68
2022/09/19 02:25:05;;;;;;;21.65;3.67;;;8.10;99.90;;;;;;5056582;28;20041;-66
2022/09/19 02:27:38;;;;;;;10.73;3.28;;;8.10;99.90;;;;;;5073824;28;20747;-67
2022/09/19 02:30:08;;;;;;;7.95;3.17;;;8.10;99.90;;;;;;5062054;28;20043;-66
2022/09/19 02:32:38;;;;;;;9.30;2.60;;;8.10;99.90;;;;;;5065363;28;20041;-68
2022/09/19 02:35:05;;;;;;;10.73;2.90;;;8.10;99.90;;;;;;5056945;28;20040;-66
2022/09/19 02:37:48;;;;;;;10.35;3.17;;;8.10;99.90;;;;;;5066087;28;20127;-69
2022/09/19 02:40:26;;;;;;;11.75;3.13;;;8.10;99.90;;;;;;5054115;28;20311;-69
2022/09/19 02:43:07;;;;;;;11.65;2.70;;;8.10;99.90;;;;;;5058851;28;20040;-67
2022/09/19 02:45:43;;;;;;;7.00;2.35;;;8.10;99.90;;;;;;5064037;28;20040;-68
2022/09/19 02:48:36;;;;;;;13.05;3.85;;;8.10;99.90;;;;;;5061396;28;20033;-67
2022/09/19 02:51:24;;;;;;;7.60;2.45;;;8.10;99.90;;;;;;5060284;28;20040;-67
2022/09/19 02:53:56;;;;;;;11.52;2.40;;;8.10;99.90;;;;;;5074321;28;20033;-68
2022/09/19 02:56:30;;;;;;;10.43;2.28;;;8.10;99.90;;;;;;5066213;28;20048;-67
2022/09/19 02:59:13;;;;;;;10.95;2.80;;;8.10;99.90;;;;;;5057414;28;20041;-67
2022/09/19 03:01:44;;;;;;;11.43;2.88;;;8.20;99.90;;;;;;5062200;28;20037;-67
2022/09/19 03:04:18;;;;;;;10.70;2.88;;;8.20;99.90;;;;;;5057303;28;20043;-67
2022/09/19 03:07:00;;;;;;;10.52;2.60;;;8.10;99.90;;;;;;5056565;28;20049;-67
2022/09/19 03:09:29;;;;;;;9.93;2.70;;;8.20;99.90;;;;;;5063431;28;20492;-66
2022/09/19 03:12:08;;;;;;;14.13;3.05;;;8.20;99.90;;;;;;5063772;28;20044;-67
2022/09/19 03:14:35;;;;;;;10.75;3.08;;;8.20;99.90;;;;;;5057019;28;20040;-68
2022/09/19 03:17:01;;;;;;;11.43;2.80;;;8.20;99.90;;;;;;5067327;28;20048;-66
2022/09/19 03:19:30;;;;;;;20.23;4.72;;;8.30;99.90;;;;;;5057122;28;20049;-68
2022/09/19 03:21:57;;;;;;;13.65;5.07;;;8.30;99.90;;;;;;5065106;28;20063;-66
2022/09/19 03:24:23;;;;;;;16.42;6.18;;;8.20;99.90;;;;;;5056592;28;20057;-66
2022/09/19 03:26:48;;;;;;;;;;;8.20;99.90;;;;;;5067838;28;20044;-66
2022/09/19 03:29:15;;;;;;;10.30;5.28;;;8.20;99.90;;;;;;5056341;28;20502;-67
2022/09/19 03:31:45;;;;;;;17.80;6.40;;;8.30;99.90;;;;;;5066774;28;20042;-66
2022/09/19 03:34:12;;;;;;;18.55;5.40;;;8.30;99.90;;;;;;5064750;28;20045;-66
2022/09/19 03:36:39;;;;;;;13.68;5.80;;;8.30;99.90;;;;;;5068161;28;20051;-66
2022/09/19 03:39:05;;;;;;;9.98;4.35;;;8.20;99.90;;;;;;5066407;28;20444;-67
2022/09/19 03:41:31;;;;;;;;;;;8.20;99.90;;;;;;5061781;28;20052;-65
2022/09/19 03:44:01;;;;;;;18.75;4.97;;;8.20;99.90;;;;;;5055608;28;20506;-67
2022/09/19 03:46:30;;;;;;;10.75;3.85;;;8.20;99.90;;;;;;5063595;28;20052;-66
2022/09/19 03:48:56;;;;;;;19.33;4.55;;;8.20;99.90;;;;;;5057240;28;20047;-67
2022/09/19 03:51:22;;;;;;;15.57;4.40;;;8.30;99.90;;;;;;5070397;28;20888;-66
2022/09/19 03:53:47;;;;;;;;;;;8.30;99.90;;;;;;5071839;28;20051;-68
2022/09/19 03:56:14;;;;;;;12.75;4.30;;;8.30;99.90;;;;;;5071558;28;19922;-66
2022/09/19 03:58:41;;;;;;;19.75;4.25;;;8.30;99.90;;;;;;5068821;28;20036;-66
2022/09/19 04:01:07;;;;;;;17.60;4.53;;;8.40;99.90;;;;;;5068586;28;20115;-66
2022/09/19 04:03:37;;;;;;;10.05;4.53;;;8.40;99.90;;;;;;5063567;28;20046;-66
2022/09/19 04:06:04;;;;;;;15.70;3.50;;;8.40;99.90;;;;;;5068403;28;20496;-67
2022/09/19 04:08:30;;;;;;;13.02;4.43;;;8.40;99.90;;;;;;5068452;28;20663;-67
2022/09/19 04:10:56;;;;;;;20.95;3.90;;;8.40;99.90;;;;;;5083503;28;20043;-67
2022/09/19 04:13:22;;;;;;;;;;;8.50;99.90;;;;;;5070261;28;20044;-68
2022/09/19 04:15:49;;;;;;;19.40;4.97;;;8.50;99.90;;;;;;5061865;28;20395;-67
2022/09/19 04:18:15;;;;;;;20.65;4.72;;;8.50;99.90;;;;;;5065628;28;20044;-69
2022/09/19 04:20:40;;;;;;;;;;;8.50;99.90;;;;;;5060549;28;20090;-66
2022/09/19 04:23:06;;;;;;;10.80;3.72;;;8.40;99.90;;;;;;5054751;28;20024;-67
2022/09/19 04:25:35;;;;;;;8.38;4.00;;;8.40;99.90;;;;;;5066048;28;20552;-69
2022/09/19 04:28:03;;;;;;;15.80;3.53;;;8.40;99.90;;;;;;5073045;28;20103;-68
2022/09/19 04:30:30;;;;;;;10.70;2.80;;;8.40;99.90;;;;;;5060236;28;20029;-67
2022/09/19 04:32:58;;;;;;;9.75;3.10;;;8.40;99.90;;;;;;5072552;28;20041;-68
2022/09/19 04:35:24;;;;;;;11.02;2.92;;;8.40;99.90;;;;;;5062037;28;20056;-70
2022/09/19 04:37:49;;;;;;;8.75;2.70;;;8.40;99.90;;;;;;5063985;28;20131;-66
2022/09/19 04:40:15;;;;;;;;;;;8.40;99.90;;;;;;5065124;28;20119;-67
2022/09/19 04:42:41;;;;;;;9.50;2.67;;;8.40;99.90;;;;;;5061748;28;19916;-67
2022/09/19 04:45:07;;;;;;;16.10;3.80;;;8.40;99.90;;;;;;5062817;28;20499;-68
2022/09/19 04:47:36;;;;;;;;;;;8.40;99.90;;;;;;5061406;28;20058;-66
2022/09/19 04:50:06;;;;;;;12.45;2.95;;;8.40;99.90;;;;;;5060381;28;19947;-68
2022/09/19 04:52:31;;;;;;;13.20;2.95;;;8.30;99.90;;;;;;5075283;28;20094;-66
2022/09/19 04:54:58;;;;;;;;;;;8.40;99.90;;;;;;5077669;28;20059;-68
2022/09/19 04:57:26;;;;;;;3.65;2.10;;;8.40;99.90;;;;;;5083739;28;19916;-66
2022/09/19 04:59:55;;;;;;;6.07;2.45;;;8.40;99.90;;;;;;5080753;28;20112;-66
2022/09/19 05:02:21;;;;;;;9.57;3.25;;;8.40;99.90;;;;;;5071879;28;20082;-66
2022/09/19 05:04:46;;;;;;;;;;;8.50;99.90;;;;;;5034811;27;20040;-66
2022/09/19 05:07:13;;;;;;;6.72;2.67;;;8.50;99.90;;;;;;5046693;28;19927;-66
2022/09/19 05:09:43;;;;;;;10.82;3.35;;;8.50;99.90;;;;;;5045978;28;20040;-67
2022/09/19 05:12:09;;;;;;;11.52;3.25;;;8.60;99.90;;;;;;5042984;28;20086;-67
2022/09/19 05:14:35;;;;;;;8.43;3.10;;;8.50;99.90;;;;;;5047164;28;20064;-66
2022/09/19 05:17:01;;;;;;;;;;;8.50;99.90;;;;;;5047320;28;20091;-67
2022/09/19 05:19:27;;;;;;;9.90;3.22;;;8.40;99.90;;;;;;5047155;28;19928;-66
2022/09/19 05:21:53;;;;;;;13.27;3.53;;;8.40;99.90;;;;;;5045821;28;20070;-69
2022/09/19 05:24:18;;;;;;;;;;;8.40;99.90;;;;;;5048562;28;20536;-67
2022/09/19 05:26:45;;;;;;;8.25;3.00;;;8.40;99.90;;;;;;5045338;28;19920;-65
2022/09/19 05:29:14;;;;;;;15.45;2.85;;;8.40;99.90;;;;;;5046956;28;20060;-65
2022/09/19 05:31:41;;;;;;;8.77;2.90;;;8.50;99.90;;;;;;5043181;28;20063;-68
2022/09/19 05:34:10;;;;;;;12.27;2.80;;;8.50;99.90;;;;;;5046155;28;21244;-67
2022/09/19 05:36:35;;;;;;;10.23;2.83;;;8.50;99.90;;;;;;5044484;28;20044;-67
2022/09/19 05:39:01;;;;;;;;;;;8.60;99.90;;;;;;5046878;28;20036;-65
2022/09/19 05:41:27;;;;;;;9.77;2.90;;;8.60;99.90;;;;;;5043951;28;19921;-65
2022/09/19 05:43:53;;;;;;;14.23;4.25;;;8.60;99.90;;;;;;5044653;28;20037;-66
2022/09/19 05:46:20;;;;;;;;;;;8.60;99.90;;;;;;5043914;28;20067;-68
2022/09/19 05:48:48;;;;;;;8.13;2.78;;;8.60;99.90;;;;;;5046703;28;19927;-66
2022/09/19 05:51:13;;;;;;;11.00;3.05;;;8.70;99.90;;;;;;5045001;28;20049;-66
2022/09/19 05:53:56;;;;;;;;;;;8.60;99.90;;;;;;5045495;28;20491;-67
2022/09/19 05:56:22;;;;;;;14.60;2.75;;;8.70;99.90;;;;;;5043176;28;20768;-67
2022/09/19 05:58:47;;;;;;;10.77;2.63;;;8.70;99.90;;;;;;5046175;28;20438;-65
2022/09/19 06:01:14;;;;;;;;;;;8.70;99.90;;;;;;5041468;28;20080;-66
2022/09/19 06:03:40;;;;;;;11.43;3.03;;;8.70;99.90;;;;;;5040705;28;19917;-66
2022/09/19 06:06:11;;;;;;;5.57;2.55;;;8.80;99.90;;;;;;5042837;28;20043;-68
2022/09/19 06:08:38;;;;;;;10.65;2.90;;;8.70;99.90;;;;;;5046275;28;20068;-71
2022/09/19 06:11:04;;;;;;;12.38;2.85;;;8.80;99.90;;;;;;5042451;28;20667;-68
2022/09/19 06:14:13;;;;;;;;;;;8.80;99.90;;;;;;5046527;28;20037;-67
2022/09/19 06:16:17;;;;;;;6.32;2.35;;;8.80;99.90;;;;;;5043156;28;19913;-67
2022/09/19 06:18:44;;;;;;;10.40;2.75;;;8.90;99.90;;;;;;5046358;28;20825;-64
2022/09/19 06:21:09;;;;;;;6.53;2.20;;;8.90;99.90;;;;;;5044819;28;20128;-66
2022/09/19 06:23:35;;;;;;;;;;;8.90;99.90;;;;;;5044042;28;20116;-66
2022/09/19 06:26:01;;;;;;;7.82;2.10;;;9.00;99.90;;;;;;5042557;28;20532;-65
2022/09/19 06:28:26;;;;;;;;;;;9.00;99.90;;;;;;5045014;28;20043;-66
2022/09/19 06:30:53;;;;;;;7.13;1.63;;;9.00;99.90;;;;;;5044285;28;19925;-66
2022/09/19 06:33:18;;;;;;;9.57;1.65;;;9.10;99.90;;;;;;5045172;28;20048;-67
2022/09/19 06:35:44;;;;;;;;;;;9.10;99.90;;;;;;5043728;28;20041;-65
2022/09/19 06:38:10;;;;;;;5.22;1.67;;;9.20;99.90;;;;;;5046927;28;19917;-65
2022/09/19 06:40:38;;;;;;;5.25;1.00;;;9.30;99.90;;;;;;5041660;28;20682;-67
2022/09/19 06:43:05;;;;;;;3.47;0.63;;;9.30;99.90;;;;;;5040643;28;20127;-67
2022/09/19 06:45:38;;;;;;;6.25;1.10;;;9.30;99.90;;;;;;5038334;28;20064;-66
2022/09/19 06:48:05;;;;;;;1.92;0.80;;;9.30;99.90;;;;;;5041159;28;20808;-64
2022/09/19 06:50:31;;;;;;;2.55;1.40;;;9.30;99.90;;;;;;5040581;28;20037;-67
2022/09/19 06:52:58;;;;;;;5.53;1.42;;;9.30;99.90;;;;;;5034039;28;20049;-65
2022/09/19 06:55:24;;;;;;;5.00;0.80;;;9.30;99.90;;;;;;5036631;28;20520;-65
2022/09/19 06:57:58;;;;;;;2.65;0.90;;;9.30;99.90;;;;;;5042200;28;20045;-66
2022/09/19 07:00:26;;;;;;;6.00;1.23;;;9.30;99.90;;;;;;5036235;28;20044;-65
2022/09/19 07:02:57;;;;;;;6.57;1.17;;;9.40;99.90;;;;;;5042104;28;20247;-65
2022/09/19 07:05:23;;;;;;;4.05;1.88;;;9.40;99.90;;;;;;5043246;28;20079;-65
2022/09/19 07:07:51;;;;;;;;;;;9.40;99.90;;;;;;5045745;28;20136;-66
2022/09/19 07:10:19;;;;;;;1.90;0.45;;;9.40;99.90;;;;;;5042584;28;20329;-65
2022/09/19 07:12:51;;;;;;;2.70;0.70;;;9.40;99.90;;;;;;5043605;28;20037;-65
2022/09/19 07:15:17;;;;;;;2.58;0.65;;;9.30;99.90;;;;;;5041597;28;20119;-65
2022/09/19 07:17:43;;;;;;;;;;;9.40;99.90;;;;;;5045167;28;20041;-66
2022/09/19 07:20:08;;;;;;;3.88;0.40;;;9.40;99.90;;;;;;5043430;28;19928;-67
2022/09/19 07:22:35;;;;;;;;;;;9.40;99.90;;;;;;5043959;28;20049;-66
2022/09/19 07:25:01;;;;;;;1.15;0.47;;;9.40;99.90;;;;;;5042830;28;19926;-65
2022/09/19 07:27:26;;;;;;;;;;;9.40;99.90;;;;;;5045110;28;20045;-65
2022/09/19 07:29:52;;;;;;;9.77;2.25;;;9.40;99.90;;;;;;5047934;28;19921;-65
2022/09/19 07:32:18;;;;;;;;;;;9.30;99.90;;;;;;5042917;28;20090;-65
2022/09/19 07:34:45;;;;;;;4.55;1.13;;;9.30;99.90;;;;;;5034685;28;20587;-64
2022/09/19 07:37:11;;;;;;;3.10;0.98;;;9.20;99.90;;;;;;5044975;28;20155;-65
2022/09/19 07:39:37;;;;;;;;;;;9.20;99.90;;;;;;5049832;28;20037;-69
2022/09/19 07:42:03;;;;;;;2.20;0.75;;;9.20;99.90;;;;;;5045279;28;20285;-64
2022/09/19 07:44:28;;;;;;;2.70;0.68;;;9.30;99.90;;;;;;5049773;28;20037;-66
2022/09/19 07:49:39;;;;;;;4.53;1.52;;;9.40;99.90;;;;;;5046201;28;19967;-65
2022/09/19 07:52:04;;;;;;;;;;;9.30;99.90;;;;;;5048321;28;20181;-65
2022/09/19 07:54:30;;;;;;;5.30;1.15;;;9.30;99.90;;;;;;5048379;28;19993;-65
2022/09/19 07:56:55;;;;;;;7.40;1.48;;;9.40;99.90;;;;;;5046253;28;20036;-64
2022/09/19 07:59:21;;;;;;;;;;;9.40;99.90;;;;;;5049384;28;20045;-65
2022/09/19 08:01:47;;;;;;;4.75;1.42;;;9.50;99.90;;;;;;5054083;28;19916;-65
2022/09/19 08:04:13;;;;;;;6.07;1.85;;;9.50;99.90;;;;;;5044164;28;20128;-66
2022/09/19 08:06:39;;;;;;;;;;;9.50;99.90;;;;;;5046615;28;20041;-65
2022/09/19 08:09:05;;;;;;;6.35;2.00;;;9.60;99.90;;;;;;5044282;28;19924;-66
2022/09/19 08:11:35;;;;;;;;;;;9.60;99.90;;;;;;5046688;28;20037;-65
2022/09/19 08:14:01;;;;;;;11.00;2.10;;;9.60;99.90;;;;;;5048754;28;19963;-65
2022/09/19 08:16:27;;;;;;;;;;;9.60;99.90;;;;;;5045949;28;20494;-64
2022/09/19 08:18:52;;;;;;;8.13;1.65;;;9.60;99.90;;;;;;5047905;28;19924;-65
2022/09/19 08:21:19;;;;;;;;;;;9.70;99.90;;;;;;5047910;28;20440;-65
2022/09/19 08:23:45;;;;;;;6.15;1.35;;;9.70;99.90;;;;;;5048288;28;19920;-65
2022/09/19 08:26:11;;;;;;;4.07;1.00;;;9.70;99.90;;;;;;5045568;28;20157;-66
2022/09/19 08:28:37;;;;;;;;;;;9.80;99.90;;;;;;5048876;28;20382;-65
2022/09/19 08:31:03;;;;;;;4.23;0.80;;;9.80;99.90;;;;;;5045154;28;20536;-64
2022/09/19 08:33:30;;;;;;;;;;;9.70;99.90;;;;;;5048390;28;20036;-64
2022/09/19 08:35:58;;;;;;;2.13;0.50;;;9.70;99.90;;;;;;5045162;28;19920;-65
2022/09/19 08:38:24;;;;;;;2.08;0.60;;;9.70;99.90;;;;;;5047527;28;20275;-65
2022/09/19 08:41:02;;;;;;;2.17;0.43;;;9.70;99.90;;;;;;5044096;28;20435;-69
2022/09/19 08:43:47;;;;;;;3.90;0.50;;;9.70;99.90;;;;;;5045339;28;20044;-66
2022/09/19 08:46:15;;;;;;;1.05;0.30;;;9.80;99.90;;;;;;5045549;28;20048;-64
2022/09/19 08:49:02;;;;;;;4.22;0.70;;;9.80;99.90;;;;;;5047728;28;20120;-66
2022/09/19 08:51:38;;;;;;;4.75;0.70;;;9.80;99.90;;;;;;5045045;28;20068;-65
2022/09/19 08:54:36;;;;;;;2.25;0.70;;;9.80;99.90;;;;;;5047647;28;20037;-64
2022/09/19 08:57:03;;;;;;;1.50;0.60;;;9.80;99.90;;;;;;5042049;28;20208;-65
2022/09/19 08:59:39;;;;;;;10.00;0.55;;;9.80;99.90;;;;;;5048611;28;20056;-65
2022/09/19 09:02:28;;;;;;;4.40;0.68;;;9.80;99.90;;;;;;5044924;28;20500;-65
2022/09/19 09:04:54;;;;;;;1.08;0.75;;;9.70;99.90;;;;;;5038426;28;20072;-65
2022/09/19 09:07:49;;;;;;;2.85;0.50;;;9.70;99.90;;;;;;5046575;28;20473;-65
2022/09/19 09:10:33;;;;;;;1.27;0.43;;;9.70;99.90;;;;;;5040002;28;20049;-65
2022/09/19 09:13:24;;;;;;;1.92;0.50;;;9.80;99.90;;;;;;5036617;28;20040;-65
2022/09/19 09:16:05;;;;;;;5.05;0.90;;;9.90;99.90;;;;;;5044894;28;20036;-63
2022/09/19 09:18:48;;;;;;;5.15;0.88;;;9.90;99.90;;;;;;5038970;28;20047;-62
2022/09/19 09:21:27;;;;;;;3.83;0.70;;;9.90;99.90;;;;;;5044877;28;20033;-67
2022/09/19 09:24:01;;;;;;;2.25;0.60;;;9.90;99.90;;;;;;5045638;28;20043;-65
2022/09/19 09:26:29;;;;;;;2.15;0.70;;;9.90;99.90;;;;;;5041721;28;20071;-64
2022/09/19 09:29:02;;;;;;;2.00;0.80;;;9.90;99.90;;;;;;5043340;28;21084;-65
2022/09/19 09:31:36;;;;;;;6.85;0.75;;;10.00;99.90;;;;;;5042854;28;20041;-66
2022/09/19 09:34:07;;;;;;;7.18;1.00;;;10.00;99.90;;;;;;5045150;28;20037;-68
2022/09/19 09:36:42;;;;;;;5.85;1.05;;;10.10;99.90;;;;;;5045034;28;20047;-65
2022/09/19 09:39:50;;;;;;;4.28;1.05;;;10.10;99.90;;;;;;5043645;28;20378;-67
2022/09/19 09:42:20;;;;;;;8.05;1.42;;;10.00;99.90;;;;;;5045627;28;20043;-64
2022/09/19 09:44:57;;;;;;;6.93;1.05;;;10.10;99.90;;;;;;5038386;28;20044;-64
2022/09/19 09:47:48;;;;;;;;;;;10.10;99.90;;;;;;5044658;28;20044;-65
2022/09/19 09:50:47;;;;;;;6.15;1.13;;;10.20;99.90;;;;;;5043494;28;19920;-65
2022/09/19 09:53:31;;;;;;;12.65;2.08;;;10.20;99.90;;;;;;5002875;28;20049;-64
2022/09/19 09:56:15;;;;;;;7.93;1.90;;;10.20;99.90;;;;;;5037515;28;20045;-70
2022/09/19 09:58:53;;;;;;;11.93;1.92;;;10.30;99.90;;;;;;5047161;28;20033;-65
2022/09/19 10:04:48;;;;;;;9.15;1.92;;;10.20;99.90;;;;;;5043238;28;20064;-65
2022/09/19 10:07:35;;;;;;;8.57;1.30;;;10.20;99.90;;;;;;5038490;28;20515;-66
2022/09/19 10:10:14;;;;;;;3.72;0.93;;;10.20;99.90;;;;;;5044485;28;20045;-64
2022/09/19 10:12:54;;;;;;;6.68;1.92;;;10.20;99.90;;;;;;5045600;28;20048;-65
2022/09/19 10:15:23;;;;;;;2.60;1.10;;;10.30;99.90;;;;;;5040131;28;20125;-68
2022/09/19 10:18:07;;;;;;;7.78;2.00;;;10.30;99.90;;;;;;5046918;28;20060;-67
2022/09/19 10:20:44;;;;;;;3.05;1.00;;;10.20;99.90;;;;;;5043994;28;20041;-70
2022/09/19 10:23:15;;;;;;;7.38;1.70;;;10.20;99.90;;;;;;5041053;28;20041;-66
2022/09/19 10:25:40;;;;;;;4.78;1.55;;;10.10;99.90;;;;;;5043402;28;20052;-67
2022/09/19 10:28:36;;;;;;;;;;;10.10;99.90;;;;;;5046809;28;20033;-67
2022/09/19 10:31:02;;;;;;;10.55;2.33;;;10.10;99.90;;;;;;5030155;28;19974;-65
2022/09/19 10:33:44;;;;;;;12.43;2.58;;;10.20;99.90;;;;;;5037553;28;20476;-67
2022/09/19 10:36:21;;;;;;;13.63;2.70;;;10.20;99.90;;;;;;5035202;28;20041;-66
2022/09/19 10:38:58;;;;;;;11.77;2.05;;;10.30;99.90;;;;;;5043080;28;20032;-66
2022/09/19 10:41:25;;;;;;;;;;;10.50;99.90;;;;;;5043600;28;20382;-66
2022/09/19 10:43:57;;;;;;;9.80;1.70;;;10.70;99.90;;;;;;5044283;28;19920;-66
2022/09/19 10:46:35;;;;;;;13.75;2.60;;;10.80;99.90;;;;;;5042754;28;20376;-64
2022/09/19 10:49:05;;;;;;;13.23;1.90;;;10.70;99.90;;;;;;5045439;28;20037;-66
2022/09/19 10:51:41;;;;;;;10.27;2.75;;;10.70;99.90;;;;;;5042818;28;20076;-65
2022/09/19 10:54:20;;;;;;;17.63;2.88;;;10.80;99.90;;;;;;5044798;28;20060;-64
2022/09/19 10:56:46;;;;;;;9.57;2.10;;;10.80;99.90;;;;;;5039293;28;20068;-66
2022/09/19 10:59:12;;;;;;;;;;;10.80;99.90;;;;;;5041250;28;20044;-65
2022/09/19 11:01:39;;;;;;;8.13;2.65;;;10.80;99.90;;;;;;5041628;28;20016;-65
2022/09/19 11:04:22;;;;;;;12.88;2.20;;;10.70;99.90;;;;;;5043606;28;20045;-67
2022/09/19 11:06:59;;;;;;;12.40;2.83;;;10.60;99.90;;;;;;5040136;28;20044;-64
2022/09/19 11:09:28;;;;;;;12.32;2.20;;;10.70;99.90;;;;;;5043785;28;20041;-67
2022/09/19 11:12:13;;;;;;;11.63;2.40;;;10.60;99.90;;;;;;5043101;28;20052;-66
2022/09/19 11:14:41;;;;;;;10.80;2.15;;;10.60;99.90;;;;;;5042854;28;20041;-66
2022/09/19 11:17:31;;;;;;;9.48;2.30;;;10.70;99.90;;;;;;5042562;28;20521;-70
2022/09/19 11:20:29;;;;;;;10.07;2.35;;;10.80;99.90;;;;;;5037640;28;20098;-65
2022/09/19 11:23:30;;;;;;;13.48;2.47;;;11.00;99.90;;;;;;5043394;28;20068;-65
2022/09/19 11:26:18;;;;;;;15.10;2.55;;;11.10;99.90;;;;;;5031518;28;20416;-66
2022/09/19 11:29:12;;;;;;;9.23;3.00;;;11.00;99.90;;;;;;5040338;28;20045;-65
2022/09/19 11:31:47;;;;;;;12.48;2.53;;;11.20;99.90;;;;;;5040896;28;20044;-66
2022/09/19 11:34:30;;;;;;;12.63;2.58;;;11.40;99.90;;;;;;5038869;28;20033;-65
2022/09/19 11:37:41;;;;;;;11.20;2.22;;;11.50;99.90;;;;;;5040965;28;20083;-67
2022/09/19 11:40:29;;;;;;;8.98;2.40;;;11.50;99.90;;;;;;5042928;28;20049;-65
2022/09/19 11:43:20;;;;;;;9.30;2.40;;;11.50;99.90;;;;;;5044054;28;20065;-68
2022/09/19 11:46:12;;;;;;;9.73;2.45;;;11.50;99.90;;;;;;5036886;28;20044;-67
2022/09/19 11:48:49;;;;;;;7.53;1.80;;;11.40;99.90;;;;;;5044726;28;20395;-65
2022/09/19 11:51:29;;;;;;;;;;;11.30;99.90;;;;;;5041806;28;20037;-66
2022/09/19 11:54:22;;;;;;;9.25;2.10;;;11.50;99.90;;;;;;5040421;28;20402;-68
2022/09/19 11:57:09;;;;;;;8.85;1.98;;;11.40;99.90;;;;;;5039418;28;20098;-67
2022/09/19 11:59:54;;;;;;;11.05;2.47;;;11.60;99.90;;;;;;5037962;28;20036;-66
2022/09/19 12:02:58;;;;;;;13.00;2.25;;;11.90;99.90;;;;;;5042076;28;20041;-66
2022/09/19 12:05:44;;;;;;;7.75;1.70;;;11.90;99.90;;;;;;5024142;28;20068;-68
2022/09/19 12:08:30;;;;;;;11.10;1.67;;;12.00;99.90;;;;;;5039970;28;20041;-67
2022/09/19 12:11:12;;;;;;;12.55;1.85;;;12.00;99.90;;;;;;5033528;28;20080;-66
2022/09/19 12:13:38;;;;;;;11.32;2.13;;;11.90;99.90;;;;;;5045034;28;20413;-68
2022/09/19 12:16:10;;;;;;;10.65;1.90;;;12.00;99.90;;;;;;5044590;28;20041;-68
2022/09/19 12:18:43;;;;;;;4.25;1.45;;;12.20;99.90;;;;;;5048268;28;20048;-66
2022/09/19 12:21:11;;;;;;;12.93;1.83;;;12.20;99.90;;;;;;5042908;28;20127;-70
2022/09/19 12:27:01;;;;;;;8.88;1.52;;;12.30;99.90;;;;;;5042012;28;20140;-66
2022/09/19 12:29:33;;;;;;;;;;;12.50;99.90;;;;;;5029913;28;20779;-65
2022/09/19 12:32:13;;;;;;;6.65;1.58;;;12.50;99.90;;;;;;5042665;28;19916;-67
2022/09/19 12:35:02;;;;;;;6.05;1.45;;;12.50;99.90;;;;;;5047296;28;20080;-66
2022/09/19 12:37:38;;;;;;;12.02;1.70;;;12.30;99.90;;;;;;5042577;28;20052;-67
2022/09/19 12:40:28;;;;;;;7.10;1.42;;;12.40;99.90;;;;;;5045919;28;20037;-67
2022/09/19 12:43:23;;;;;;;10.70;2.05;;;12.50;99.90;;;;;;5045728;28;20116;-67
2022/09/19 12:46:09;;;;;;;13.30;2.08;;;12.40;99.90;;;;;;5050870;28;20045;-66
2022/09/19 12:48:47;;;;;;;10.05;1.85;;;12.40;99.90;;;;;;5046748;28;20182;-65
2022/09/19 12:51:21;;;;;;;9.48;1.77;;;12.40;99.90;;;;;;5040485;28;20065;-66
2022/09/19 12:54:05;;;;;;;10.43;1.63;;;12.40;99.90;;;;;;5037530;28;20037;-66
2022/09/19 12:56:38;;;;;;;11.70;1.65;;;12.40;99.90;;;;;;5045226;28;20045;-64
2022/09/19 12:59:19;;;;;;;14.15;2.28;;;12.40;99.90;;;;;;5047720;28;20045;-66
2022/09/19 13:02:23;;;;;;;4.97;1.20;;;12.40;99.90;;;;;;5045484;28;20795;-67
2022/09/19 13:05:25;;;;;;;10.07;1.70;;;12.40;99.90;;;;;;5036974;28;20037;-66
2022/09/19 13:08:05;;;;;;;13.75;1.80;;;12.20;99.90;;;;;;5032096;28;20063;-65
2022/09/19 13:11:13;;;;;;;10.32;1.58;;;12.10;99.90;;;;;;5043265;28;20087;-65
2022/09/19 13:13:53;;;;;;;12.55;1.70;;;12.10;99.90;;;;;;5046426;28;20044;-66
2022/09/19 13:16:33;;;;;;;13.23;2.40;;;12.00;99.90;;;;;;5042997;28;20122;-69
2022/09/19 13:24:47;;;;;;;6.30;0.95;;;11.60;99.90;;;;;;5043486;28;20048;-68
2022/09/19 13:27:13;;;;;;;5.47;0.93;;;11.60;99.90;;;;;;5041220;28;20611;-67
2022/09/19 13:29:45;;;;;;;5.10;0.88;;;11.70;99.90;;;;;;5045422;28;20060;-67
2022/09/19 13:32:53;;;;;;;6.10;0.98;;;11.70;99.90;;;;;;5044307;28;20162;-68
2022/09/19 13:35:22;;;;;;;5.20;1.27;;;11.50;99.90;;;;;;5037760;28;20072;-68
2022/09/19 13:37:51;;;;;;;2.85;0.75;;;11.50;99.90;;;;;;5045820;28;20160;-68
2022/09/19 13:40:39;;;;;;;7.60;1.20;;;11.70;99.90;;;;;;5040561;28;20036;-69
2022/09/19 13:43:49;;;;;;;7.40;1.13;;;11.90;99.90;;;;;;5043492;28;20045;-68
2022/09/19 13:46:48;;;;;;;3.22;0.98;;;12.10;99.90;;;;;;5033443;28;20053;-69
2022/09/19 13:49:30;;;;;;;3.42;1.02;;;12.10;99.90;;;;;;5041793;28;20120;-70
2022/09/19 13:52:09;;;;;;;10.30;1.27;;;12.30;99.90;;;;;;5042554;28;20528;-67
2022/09/19 13:55:02;;;;;;;5.35;0.88;;;12.30;99.90;;;;;;5045444;28;20045;-67